Time;durP1;ratioP1;P1;durP2;ratioP2;P2;SDS_P1;SDS_P2;PMS_P1;PMS_P2;Temp;Humidity;BMP_temperature;BMP_pressure;BME280_temperature;BME280_humidity;BME280_pressure;Samples;Min_cycle;Max_cycle;Signal;HPM_P1;HPM_P2
2023/12/05 00:01:57;;;;;;;4.63;0.70;;;;;;;3.54;87.74;95234.56;5086588;28;20185;-68
2023/12/05 00:04:22;;;;;;;2.07;1.97;;;;;;;3.63;87.53;95256.22;5087939;28;20186;-68
2023/12/05 00:06:48;;;;;;;1.27;1.17;;;;;;;3.63;87.45;95254.41;5088121;28;20220;-68
2023/12/05 00:09:14;;;;;;;7.00;1.83;;;;;;;3.81;87.07;95251.69;5087777;28;20244;-68
2023/12/05 00:11:40;;;;;;;0.53;0.53;;;;;;;3.96;86.40;95257.91;5088638;28;20537;-68
2023/12/05 00:14:05;;;;;;;0.57;0.57;;;;;;;3.92;85.37;95256.59;5088809;28;20173;-68
2023/12/05 00:16:31;;;;;;;0.40;0.40;;;;;;;3.95;83.88;95260.69;5088869;28;20184;-68
2023/12/05 00:18:56;;;;;;;2.10;2.00;;;;;;;3.95;83.10;95260.69;5088337;28;20185;-68
2023/12/05 00:21:22;;;;;;;0.50;0.50;;;;;;;3.79;83.02;95261.47;5089012;28;20694;-68
2023/12/05 00:23:47;;;;;;;0.87;0.87;;;;;;;3.59;83.53;95267.91;5088761;28;20185;-68
2023/12/05 00:26:13;;;;;;;1.63;1.53;;;;;;;3.40;83.54;95246.38;5088950;28;20187;-68
2023/12/05 00:28:38;;;;;;;1.57;1.47;;;;;;;3.51;83.46;95271.28;5089161;28;21227;-67
2023/12/05 00:31:10;;;;;;;0.70;0.70;;;;;;;3.38;83.96;95258.69;5088539;28;20693;-68
2023/12/05 00:33:35;;;;;;;0.50;0.50;;;;;;;3.44;84.00;95259.88;5088806;28;20606;-67
2023/12/05 00:36:01;;;;;;;6.17;5.90;;;;;;;3.46;83.49;95262.34;5088803;28;20174;-68
2023/12/05 00:38:26;;;;;;;0.70;0.70;;;;;;;3.49;84.24;95262.81;5087745;28;20250;-68
2023/12/05 00:40:52;;;;;;;0.50;0.50;;;;;;;3.54;83.83;95257.97;5088828;28;20201;-68
2023/12/05 00:43:17;;;;;;;0.90;0.90;;;;;;;3.57;83.93;95272.44;5088504;28;20169;-67
2023/12/05 00:45:43;;;;;;;0.50;0.50;;;;;;;3.61;83.75;95271.16;5088727;28;20182;-68
2023/12/05 00:48:08;;;;;;;0.57;0.57;;;;;;;3.63;83.46;95267.41;5088873;28;20178;-68
2023/12/05 00:50:33;;;;;;;1.27;1.20;;;;;;;3.57;84.08;95259.44;5088620;28;20209;-68
2023/12/05 00:52:59;;;;;;;0.93;0.93;;;;;;;3.59;83.57;95254.88;5088997;28;20173;-68
2023/12/05 00:55:24;;;;;;;0.50;0.50;;;;;;;3.63;83.67;95264.03;5088993;28;20769;-68
2023/12/05 00:57:50;;;;;;;0.53;0.53;;;;;;;3.65;84.11;95259.44;5092424;28;20178;-68
2023/12/05 01:00:15;;;;;;;0.47;0.47;;;;;;;3.67;84.34;95260.13;5092559;28;20187;-68
2023/12/05 01:02:41;;;;;;;0.60;0.60;;;;;;;3.71;84.52;95253.63;5092695;28;20174;-68
2023/12/05 01:05:09;;;;;;;0.90;0.90;;;;;;;3.73;84.44;95252.47;5092957;28;20178;-68
2023/12/05 01:07:36;;;;;;;0.53;0.53;;;;;;;3.88;84.45;95247.50;5092651;28;20716;-68
2023/12/05 01:10:02;;;;;;;1.80;1.70;;;;;;;3.93;84.48;95242.59;5092428;28;20607;-68
2023/12/05 01:12:28;;;;;;;0.60;0.60;;;;;;;3.93;84.43;95236.56;5092621;28;20201;-68
2023/12/05 01:14:53;;;;;;;0.70;0.70;;;;;;;3.91;83.95;95241.13;5092501;28;20686;-68
2023/12/05 01:17:19;;;;;;;2.20;1.50;;;;;;;3.82;84.23;95223.84;5098459;28;20185;-68
2023/12/05 01:19:44;;;;;;;1.53;1.43;;;;;;;3.91;84.38;95233.31;5111467;28;20181;-68
2023/12/05 01:22:10;;;;;;;9.70;2.43;;;;;;;3.67;84.29;95236.69;5112679;28;20200;-68
2023/12/05 01:24:35;;;;;;;0.93;0.93;;;;;;;3.55;84.64;95207.53;5112312;28;20238;-67
2023/12/05 01:27:02;;;;;;;1.37;1.27;;;;;;;3.87;83.78;95225.03;5112517;28;20181;-67
2023/12/05 01:29:28;;;;;;;1.30;1.20;;;;;;;3.83;83.13;95215.88;5112222;28;20226;-68
2023/12/05 01:31:53;;;;;;;0.60;0.60;;;;;;;3.84;82.82;95220.13;5112330;28;20169;-68
2023/12/05 01:34:19;;;;;;;1.30;1.20;;;;;;;3.88;82.15;95226.66;5112257;28;20200;-67
2023/12/05 01:36:44;;;;;;;0.43;0.43;;;;;;;3.77;81.59;95221.75;5112331;28;20238;-67
2023/12/05 01:39:12;;;;;;;0.50;0.50;;;;;;;3.48;81.49;95188.31;5112192;27;20169;-67
2023/12/05 01:41:38;;;;;;;0.60;0.60;;;;;;;3.67;80.99;95210.66;5112241;28;20622;-67
2023/12/05 01:44:04;;;;;;;0.60;0.60;;;;;;;3.41;80.73;95171.72;5112372;28;20196;-68
2023/12/05 01:46:30;;;;;;;0.70;0.70;;;;;;;3.79;80.91;95212.00;5112188;28;20256;-69
2023/12/05 01:48:56;;;;;;;1.03;1.03;;;;;;;3.87;79.11;95193.78;5112019;28;20181;-69
2023/12/05 01:51:22;;;;;;;0.40;0.40;;;;;;;4.01;78.60;95202.72;5112191;28;20177;-69
2023/12/05 01:53:48;;;;;;;1.90;1.80;;;;;;;3.75;78.97;95210.66;5112101;28;20179;-69
2023/12/05 01:56:14;;;;;;;0.77;0.77;;;;;;;3.51;79.59;95208.84;5112075;28;20173;-68
2023/12/05 01:58:40;;;;;;;1.63;1.53;;;;;;;3.39;79.94;95184.88;5111976;28;20256;-69
2023/12/05 02:01:07;;;;;;;0.57;0.57;;;;;;;3.63;79.96;95193.75;5111787;28;20557;-68
2023/12/05 02:03:33;;;;;;;0.90;0.90;;;;;;;3.62;79.31;95192.94;5111823;28;20173;-68
2023/12/05 02:05:59;;;;;;;1.30;1.23;;;;;;;3.64;79.75;95203.97;5111843;28;20216;-68
2023/12/05 02:08:28;;;;;;;0.40;0.40;;;;;;;3.52;79.95;95201.84;5111655;28;20181;-67
2023/12/05 02:10:53;;;;;;;3.20;2.00;;;;;;;3.52;80.01;95199.25;5111570;28;20293;-68
2023/12/05 02:13:19;;;;;;;0.50;0.50;;;;;;;3.51;79.99;95200.22;5111780;28;20189;-67
2023/12/05 02:16:02;;;;;;;1.33;1.13;;;;;;;3.61;78.93;95204.31;5111877;28;20954;-67
2023/12/05 02:18:39;;;;;;;0.53;0.53;;;;;;;3.67;78.83;95188.03;5111755;28;20189;-67
2023/12/05 02:21:20;;;;;;;0.60;0.60;;;;;;;3.73;78.46;95189.19;5111378;28;20218;-67
2023/12/05 02:24:04;;;;;;;2.77;2.47;;;;;;;3.69;78.93;95177.47;5111512;28;20210;-68
2023/12/05 02:26:42;;;;;;;1.43;0.97;;;;;;;3.72;78.46;95177.94;5111598;28;20176;-68
2023/12/05 02:29:08;;;;;;;0.67;0.67;;;;;;;3.67;78.97;95171.63;5111526;28;20180;-68
2023/12/05 02:31:33;;;;;;;1.13;0.90;;;;;;;3.54;78.87;95164.28;5111554;28;20183;-68
2023/12/05 02:33:59;;;;;;;1.97;1.87;;;;;;;3.38;79.70;95154.63;5111433;28;20249;-68
2023/12/05 02:36:24;;;;;;;0.50;0.50;;;;;;;3.47;80.65;95158.06;5111454;28;20187;-68
2023/12/05 02:39:01;;;;;;;0.80;0.80;;;;;;;3.50;79.77;95151.75;5111330;28;20177;-68
2023/12/05 02:41:30;;;;;;;1.17;1.17;;;;;;;3.40;80.06;95123.25;5110986;28;20172;-68
2023/12/05 02:44:26;;;;;;;0.80;0.80;;;;;;;3.66;79.38;95139.56;5110986;28;20189;-68
2023/12/05 02:46:53;;;;;;;1.80;1.67;;;;;;;3.49;79.53;95147.50;5110069;28;20275;-68
2023/12/05 02:49:19;;;;;;;2.30;0.90;;;;;;;3.48;80.17;95136.28;5110847;27;20250;-67
2023/12/05 02:51:45;;;;;;;0.50;0.50;;;;;;;3.49;79.74;95121.50;5110958;28;20642;-67
2023/12/05 02:54:10;;;;;;;0.60;0.60;;;;;;;3.68;79.87;95129.81;5110831;28;20173;-68
2023/12/05 02:56:36;;;;;;;0.50;0.50;;;;;;;3.80;78.80;95133.69;5110866;28;20622;-68
2023/12/05 02:59:02;;;;;;;0.83;0.83;;;;;;;3.56;78.87;95112.88;5110673;28;20173;-67
2023/12/05 03:01:28;;;;;;;0.60;0.60;;;;;;;3.75;78.35;95136.00;5110712;28;20184;-67
2023/12/05 03:03:53;;;;;;;0.50;0.50;;;;;;;3.77;78.27;95122.81;5110682;28;20694;-67
2023/12/05 03:06:19;;;;;;;4.03;3.47;;;;;;;3.66;78.55;95133.53;5110679;28;20185;-67
2023/12/05 03:08:44;;;;;;;0.60;0.60;;;;;;;3.71;78.45;95152.13;5110148;28;20234;-68
2023/12/05 03:11:09;;;;;;;0.50;0.50;;;;;;;3.77;78.61;95141.03;5104683;28;20241;-67
2023/12/05 03:13:42;;;;;;;0.60;0.60;;;;;;;3.73;78.56;95135.34;5090216;28;20181;-68
2023/12/05 03:16:08;;;;;;;2.00;1.60;;;;;;;3.70;78.17;95116.63;5090160;28;20177;-68
2023/12/05 03:18:33;;;;;;;0.60;0.60;;;;;;;3.80;77.84;95135.53;5089486;28;20242;-68
2023/12/05 03:20:59;;;;;;;0.60;0.60;;;;;;;3.77;78.44;95138.44;5090080;28;20599;-67
2023/12/05 03:23:25;;;;;;;0.50;0.50;;;;;;;3.94;77.92;95134.03;5089960;28;20177;-67
2023/12/05 03:25:51;;;;;;;2.93;1.60;;;;;;;3.84;77.89;95136.00;5090075;28;20182;-67
2023/12/05 03:28:16;;;;;;;0.50;0.50;;;;;;;3.91;78.50;95137.78;5089856;28;20222;-68
2023/12/05 03:30:42;;;;;;;0.50;0.50;;;;;;;3.82;77.96;95123.13;5089620;28;20236;-68
2023/12/05 03:33:08;;;;;;;2.40;2.30;;;;;;;4.01;78.32;95137.63;5089954;28;20178;-67
2023/12/05 03:35:33;;;;;;;1.53;1.43;;;;;;;4.07;77.98;95121.31;5090025;28;20272;-68
2023/12/05 03:37:59;;;;;;;1.67;1.60;;;;;;;4.08;77.14;95131.59;5089883;28;20193;-67
2023/12/05 03:40:24;;;;;;;0.60;0.60;;;;;;;3.95;77.37;95104.44;5089720;28;20623;-67
2023/12/05 03:42:50;;;;;;;0.50;0.50;;;;;;;4.08;77.31;95142.00;5089618;28;20193;-67
2023/12/05 03:45:15;;;;;;;0.53;0.53;;;;;;;4.14;77.04;95138.75;5089770;28;20221;-68
2023/12/05 03:47:41;;;;;;;0.70;0.70;;;;;;;4.17;77.26;95148.03;5089622;28;20235;-67
2023/12/05 03:50:06;;;;;;;0.70;0.70;;;;;;;4.16;77.22;95118.56;5089473;28;20694;-68
2023/12/05 03:52:32;;;;;;;0.60;0.60;;;;;;;4.31;77.04;95143.97;5089588;28;20261;-68
2023/12/05 03:54:57;;;;;;;0.50;0.50;;;;;;;4.25;76.79;95118.53;5089662;28;20615;-67
2023/12/05 03:57:23;;;;;;;0.40;0.40;;;;;;;4.37;75.87;95143.28;5089760;28;20231;-68
2023/12/05 03:59:48;;;;;;;0.50;0.50;;;;;;;4.38;75.73;95134.50;5089583;28;20181;-68
2023/12/05 04:02:14;;;;;;;0.77;0.77;;;;;;;4.41;74.57;95132.34;5089398;28;20682;-68
2023/12/05 04:04:39;;;;;;;0.50;0.50;;;;;;;4.38;73.96;95129.28;5089558;28;20196;-67
2023/12/05 04:07:05;;;;;;;0.50;0.50;;;;;;;4.35;74.41;95124.38;5089425;28;20186;-68
2023/12/05 04:09:30;;;;;;;0.50;0.50;;;;;;;4.30;74.39;95122.28;5099508;28;20263;-68
2023/12/05 04:11:57;;;;;;;0.83;0.83;;;;;;;4.16;74.28;95130.75;5109875;28;20245;-68
2023/12/05 04:14:23;;;;;;;5.93;1.93;;;;;;;4.07;74.46;95127.34;5109838;28;20176;-68
2023/12/05 04:16:48;;;;;;;0.47;0.47;;;;;;;3.92;75.54;95123.78;5109695;28;20899;-68
2023/12/05 04:19:14;;;;;;;0.60;0.60;;;;;;;3.65;75.97;95105.88;5109676;28;20181;-68
2023/12/05 04:21:39;;;;;;;0.40;0.40;;;;;;;3.70;76.64;95103.63;5109636;28;20169;-68
2023/12/05 04:24:06;;;;;;;0.40;0.40;;;;;;;3.75;76.43;95120.38;5109567;28;20176;-68
2023/12/05 04:26:32;;;;;;;0.50;0.50;;;;;;;3.64;76.75;95097.25;5109289;28;20177;-68
2023/12/05 04:28:57;;;;;;;0.50;0.50;;;;;;;3.85;76.87;95117.63;5088594;28;20250;-67
2023/12/05 04:31:26;;;;;;;0.50;0.50;;;;;;;3.80;76.45;95096.47;5090799;28;20641;-68
2023/12/05 04:33:52;;;;;;;0.50;0.50;;;;;;;3.97;76.88;95111.09;5091748;28;20185;-68
2023/12/05 04:36:18;;;;;;;0.50;0.50;;;;;;;3.91;76.42;95101.31;5093474;28;20180;-68
2023/12/05 04:38:43;;;;;;;3.47;0.83;;;;;;;3.90;76.29;95117.09;5093454;28;20185;-67
2023/12/05 04:41:08;;;;;;;0.40;0.40;;;;;;;3.77;76.82;95113.22;5093538;28;20180;-67
2023/12/05 04:43:34;;;;;;;1.60;1.53;;;;;;;3.83;77.35;95114.34;5093590;28;20220;-68
2023/12/05 04:45:59;;;;;;;0.40;0.40;;;;;;;3.91;77.56;95114.34;5093520;28;20185;-68
2023/12/05 04:48:25;;;;;;;0.50;0.50;;;;;;;3.92;76.71;95110.78;5093315;28;20180;-68
2023/12/05 04:50:51;;;;;;;0.50;0.50;;;;;;;3.85;76.75;95091.56;5093274;28;20213;-68
2023/12/05 04:53:16;;;;;;;0.50;0.50;;;;;;;3.86;76.68;95114.03;5093224;28;20177;-68
2023/12/05 04:55:42;;;;;;;0.40;0.40;;;;;;;3.97;76.46;95131.94;5093310;28;20552;-68
2023/12/05 04:58:07;;;;;;;0.60;0.60;;;;;;;3.92;77.04;95141.19;5093284;28;20178;-68
2023/12/05 05:00:34;;;;;;;0.60;0.60;;;;;;;3.96;77.02;95130.31;5092992;28;20181;-68
2023/12/05 05:03:00;;;;;;;0.43;0.43;;;;;;;4.00;77.21;95134.19;5093037;28;20186;-68
2023/12/05 05:05:26;;;;;;;0.50;0.50;;;;;;;4.06;76.98;95128.34;5092880;28;20311;-68
2023/12/05 05:07:51;;;;;;;0.80;0.80;;;;;;;4.05;77.18;95131.13;5092798;28;20264;-69
2023/12/05 05:10:18;;;;;;;0.53;0.53;;;;;;;4.05;77.66;95125.91;5105449;28;20708;-68
2023/12/05 05:12:43;;;;;;;1.33;1.33;;;;;;;4.10;77.70;95132.25;5113450;28;20176;-69
2023/12/05 05:15:09;;;;;;;0.50;0.50;;;;;;;4.14;77.66;95133.56;5113267;28;20189;-69
2023/12/05 05:17:34;;;;;;;0.50;0.50;;;;;;;4.17;77.87;95132.41;5113169;28;20177;-69
2023/12/05 05:20:00;;;;;;;0.47;0.47;;;;;;;4.23;77.68;95149.19;5098823;28;20178;-69
2023/12/05 05:22:26;;;;;;;1.87;1.80;;;;;;;4.16;78.13;95136.78;5095548;28;20173;-69
2023/12/05 05:24:51;;;;;;;0.40;0.40;;;;;;;4.27;77.89;95142.66;5092492;28;20666;-69
2023/12/05 05:27:17;;;;;;;0.50;0.50;;;;;;;4.33;78.12;95142.78;5089567;28;20182;-68
2023/12/05 05:29:43;;;;;;;0.50;0.50;;;;;;;4.40;77.71;95133.34;5092372;28;20763;-68
2023/12/05 05:32:09;;;;;;;0.70;0.70;;;;;;;4.39;77.80;95128.31;5092601;28;20174;-68
2023/12/05 05:34:34;;;;;;;0.40;0.40;;;;;;;4.27;76.98;95114.81;5092376;28;20181;-68
2023/12/05 05:36:59;;;;;;;0.50;0.50;;;;;;;4.34;77.08;95128.78;5092743;28;20181;-68
2023/12/05 05:39:25;;;;;;;0.50;0.50;;;;;;;4.33;77.41;95116.72;5092489;28;20169;-68
2023/12/05 05:41:50;;;;;;;0.50;0.50;;;;;;;4.37;77.55;95125.84;5091733;28;20268;-69
2023/12/05 05:44:16;;;;;;;0.70;0.70;;;;;;;4.41;77.11;95124.53;5090333;28;20210;-69
2023/12/05 05:46:41;;;;;;;0.60;0.60;;;;;;;4.39;77.17;95120.50;5092447;28;20208;-69
2023/12/05 05:49:07;;;;;;;0.73;0.73;;;;;;;4.42;76.76;95110.53;5091992;28;20181;-68
2023/12/05 05:51:33;;;;;;;7.40;6.93;;;;;;;4.48;76.06;95115.09;5092023;28;20577;-69
2023/12/05 05:53:58;;;;;;;0.40;0.40;;;;;;;4.51;76.24;95125.16;5091814;28;20785;-67
2023/12/05 05:56:24;;;;;;;0.40;0.40;;;;;;;4.61;76.59;95124.97;5091662;28;20181;-67
2023/12/05 05:58:50;;;;;;;0.50;0.50;;;;;;;4.62;75.88;95116.19;5091733;28;20208;-67
2023/12/05 06:01:15;;;;;;;0.60;0.60;;;;;;;4.51;75.85;95109.53;5091136;28;20180;-67
2023/12/05 06:03:41;;;;;;;0.50;0.50;;;;;;;4.48;76.20;95112.50;5090535;28;20243;-67
2023/12/05 06:06:07;;;;;;;0.53;0.53;;;;;;;4.36;76.19;95084.31;5089650;28;20190;-68
2023/12/05 06:08:33;;;;;;;0.70;0.70;;;;;;;4.55;76.25;95100.41;5091510;28;20189;-68
2023/12/05 06:10:58;;;;;;;0.73;0.73;;;;;;;4.56;76.30;95106.44;5091511;28;20230;-68
2023/12/05 06:13:24;;;;;;;1.60;1.60;;;;;;;4.57;76.49;95094.22;5091881;28;20182;-68
2023/12/05 06:15:49;;;;;;;2.13;2.03;;;;;;;4.48;77.19;95099.44;5091675;28;20239;-68
2023/12/05 06:18:15;;;;;;;0.60;0.60;;;;;;;4.49;77.24;95089.84;5101850;28;20219;-68
2023/12/05 06:20:42;;;;;;;1.83;1.73;;;;;;;4.51;76.83;95086.06;5091598;28;20170;-67
2023/12/05 06:23:08;;;;;;;2.97;2.80;;;;;;;4.46;76.63;95071.94;5091248;28;20264;-67
2023/12/05 06:25:33;;;;;;;0.50;0.50;;;;;;;4.35;76.50;95060.06;5091188;28;20261;-67
2023/12/05 06:27:59;;;;;;;1.00;1.00;;;;;;;4.51;76.33;95098.28;5091088;28;20678;-67
2023/12/05 06:30:24;;;;;;;1.47;1.47;;;;;;;4.39;76.70;95069.19;5090832;28;20210;-67
2023/12/05 06:32:50;;;;;;;2.10;1.70;;;;;;;4.60;76.74;95107.72;5091073;28;20230;-68
2023/12/05 06:35:15;;;;;;;0.70;0.70;;;;;;;4.63;76.20;95090.94;5091062;28;20236;-67
2023/12/05 06:37:42;;;;;;;0.87;0.87;;;;;;;4.65;76.46;95097.59;5091003;28;20625;-67
2023/12/05 06:40:08;;;;;;;0.93;0.93;;;;;;;4.75;76.56;95086.97;5090853;28;20200;-68
2023/12/05 06:42:34;;;;;;;0.70;0.70;;;;;;;4.71;76.37;95089.09;5090657;28;20170;-66
2023/12/05 06:45:00;;;;;;;0.60;0.60;;;;;;;4.75;75.63;95090.41;5090974;28;20205;-67
2023/12/05 06:47:25;;;;;;;1.00;1.00;;;;;;;4.72;75.75;95079.50;5090724;28;20315;-67
2023/12/05 06:49:51;;;;;;;0.40;0.40;;;;;;;4.67;76.21;95098.22;5090452;28;20186;-67
2023/12/05 06:52:16;;;;;;;2.70;1.73;;;;;;;4.73;76.25;95083.72;5089848;28;20251;-68
2023/12/05 06:54:42;;;;;;;0.60;0.60;;;;;;;4.71;76.02;95091.72;5090291;28;20170;-67
2023/12/05 06:57:07;;;;;;;0.70;0.70;;;;;;;4.78;75.81;95089.22;5090437;28;20209;-68
2023/12/05 06:59:34;;;;;;;0.50;0.50;;;;;;;4.73;76.40;95081.13;5090249;28;20170;-68
2023/12/05 07:02:00;;;;;;;0.60;0.60;;;;;;;4.78;76.38;95074.41;5090697;28;20201;-68
2023/12/05 07:04:25;;;;;;;0.80;0.80;;;;;;;4.71;76.08;95064.81;5090359;28;20228;-67
2023/12/05 07:06:51;;;;;;;0.73;0.73;;;;;;;4.77;76.60;95064.94;5089236;28;20184;-67
2023/12/05 07:09:16;;;;;;;0.60;0.60;;;;;;;4.79;76.38;95052.56;5089988;28;20232;-67
2023/12/05 07:11:42;;;;;;;0.87;0.87;;;;;;;4.89;76.45;95062.78;5090275;28;20265;-67
2023/12/05 07:14:08;;;;;;;0.70;0.70;;;;;;;4.88;75.82;95038.50;5088998;28;20620;-67
2023/12/05 07:16:35;;;;;;;0.50;0.50;;;;;;;4.93;75.71;95051.00;5090544;28;20177;-67
2023/12/05 07:19:00;;;;;;;0.60;0.60;;;;;;;4.98;75.54;95058.34;5090199;28;20247;-68
2023/12/05 07:21:26;;;;;;;0.50;0.50;;;;;;;5.05;75.03;95056.66;5090282;28;20181;-68
2023/12/05 07:23:51;;;;;;;2.70;2.60;;;;;;;5.09;75.34;95056.16;5090017;28;20186;-67
2023/12/05 07:26:16;;;;;;;1.13;1.13;;;;;;;5.18;75.44;95049.09;5090173;28;20588;-68
2023/12/05 07:28:44;;;;;;;0.50;0.50;;;;;;;5.31;74.54;95054.53;5090173;28;20216;-67
2023/12/05 07:31:10;;;;;;;0.47;0.47;;;;;;;5.35;74.26;95048.00;5089002;28;20296;-67
2023/12/05 07:33:36;;;;;;;0.50;0.50;;;;;;;5.40;73.80;95055.31;5104646;28;20258;-67
2023/12/05 07:36:03;;;;;;;2.00;1.90;;;;;;;5.32;74.32;95037.91;5096912;28;20705;-70
2023/12/05 07:38:29;;;;;;;1.30;1.30;;;;;;;5.09;75.52;95029.25;5096291;28;20181;-68
2023/12/05 07:40:55;;;;;;;3.13;2.93;;;;;;;5.26;75.62;95052.47;5104424;28;20234;-67
2023/12/05 07:43:20;;;;;;;11.37;10.70;;;;;;;5.28;75.12;95045.25;5092342;28;20963;-68
2023/12/05 07:45:46;;;;;;;0.60;0.60;;;;;;;5.44;74.87;95051.38;5102704;28;20249;-68
2023/12/05 07:48:11;;;;;;;0.60;0.60;;;;;;;5.57;74.49;95054.19;5098199;28;20180;-67
2023/12/05 07:50:37;;;;;;;0.93;0.93;;;;;;;5.71;73.88;95055.25;5095738;28;20243;-68
2023/12/05 07:53:02;;;;;;;1.87;1.77;;;;;;;5.79;73.32;95063.00;5104254;28;20663;-68
2023/12/05 07:55:28;;;;;;;1.07;1.07;;;;;;;5.85;73.24;95054.47;5090343;28;20669;-68
2023/12/05 07:57:53;;;;;;;0.70;0.70;;;;;;;5.88;72.95;95062.00;5101497;28;20205;-68
2023/12/05 08:00:19;;;;;;;1.83;1.73;;;;;;;5.95;72.58;95068.94;5098218;28;20681;-68
2023/12/05 08:02:46;;;;;;;0.70;0.70;;;;;;;5.96;72.55;95069.75;5094864;28;20173;-68
2023/12/05 08:05:12;;;;;;;2.73;2.27;;;;;;;5.95;72.24;95068.94;5105027;28;20660;-69
2023/12/05 08:07:40;;;;;;;0.40;0.40;;;;;;;5.89;72.48;95074.03;5092940;28;20168;-69
2023/12/05 08:10:07;;;;;;;0.53;0.53;;;;;;;5.91;72.45;95082.53;5099525;28;20228;-69
2023/12/05 08:12:33;;;;;;;3.50;2.47;;;;;;;5.89;72.68;95080.06;5095767;28;20270;-68
2023/12/05 08:14:59;;;;;;;0.70;0.70;;;;;;;5.90;72.63;95086.94;5098585;28;20561;-69
2023/12/05 08:17:24;;;;;;;2.57;2.37;;;;;;;5.95;72.89;95084.63;5100436;28;20185;-69
2023/12/05 08:19:50;;;;;;;0.50;0.50;;;;;;;5.94;72.90;95069.94;5094313;28;20178;-68
2023/12/05 08:22:15;;;;;;;7.77;1.70;;;;;;;5.96;72.68;95060.13;5088757;28;20185;-69
2023/12/05 08:24:41;;;;;;;0.40;0.40;;;;;;;5.99;71.90;95058.94;5094658;28;20177;-69
2023/12/05 08:27:07;;;;;;;0.47;0.47;;;;;;;5.98;72.04;95062.53;5103226;28;20597;-70
2023/12/05 08:29:32;;;;;;;0.40;0.40;;;;;;;6.01;72.03;95068.22;5097549;28;20908;-69
2023/12/05 08:31:58;;;;;;;1.10;1.10;;;;;;;5.97;71.61;95063.50;5095691;28;20185;-69
2023/12/05 08:34:24;;;;;;;0.40;0.40;;;;;;;5.93;70.95;95064.88;5105377;28;20175;-68
2023/12/05 08:36:50;;;;;;;0.40;0.40;;;;;;;5.93;71.45;95055.22;5090508;28;20185;-69
2023/12/05 08:39:16;;;;;;;1.33;1.33;;;;;;;5.89;71.71;95064.41;5101316;28;20185;-69
2023/12/05 08:41:41;;;;;;;7.53;2.43;;;;;;;5.93;72.59;95064.88;5098671;28;20181;-68
2023/12/05 08:44:06;;;;;;;0.60;0.60;;;;;;;5.97;72.41;95059.09;5093463;28;20188;-69
2023/12/05 08:46:32;;;;;;;0.50;0.50;;;;;;;6.06;72.62;95065.06;5104207;28;20183;-68
2023/12/05 08:48:58;;;;;;;1.63;1.53;;;;;;;6.12;72.96;95063.56;5092774;28;20248;-69
2023/12/05 08:51:23;;;;;;;0.90;0.90;;;;;;;6.31;72.18;95057.81;5099045;28;20201;-68
2023/12/05 08:53:49;;;;;;;1.13;1.13;;;;;;;6.45;71.26;95046.53;5088786;28;20188;-69
2023/12/05 08:56:14;;;;;;;0.40;0.40;;;;;;;6.40;71.43;95036.59;5089233;28;20189;-68
2023/12/05 08:58:40;;;;;;;4.90;4.70;;;;;;;6.41;70.90;95043.47;5093542;28;20178;-68
2023/12/05 09:01:06;;;;;;;0.40;0.40;;;;;;;6.19;71.39;95040.94;5102659;28;20177;-68
2023/12/05 09:03:31;;;;;;;0.40;0.40;;;;;;;6.04;71.69;95030.47;5094811;28;20256;-69
2023/12/05 09:05:57;;;;;;;0.40;0.40;;;;;;;5.95;72.48;95024.53;5095626;28;20170;-69
2023/12/05 09:08:22;;;;;;;1.10;1.10;;;;;;;6.16;73.09;95023.00;5089514;28;20635;-70
2023/12/05 09:10:48;;;;;;;0.90;0.90;;;;;;;6.27;71.57;95025.19;5104520;28;20247;-68
2023/12/05 09:13:17;;;;;;;0.93;0.93;;;;;;;6.16;71.13;95020.38;5092347;28;20593;-68
2023/12/05 09:15:43;;;;;;;2.37;2.27;;;;;;;6.13;71.64;95011.13;5087401;28;20620;-68
2023/12/05 09:18:10;;;;;;;1.57;1.07;;;;;;;6.27;71.84;95010.31;5089651;28;20215;-68
2023/12/05 09:20:37;;;;;;;3.20;3.00;;;;;;;6.38;71.16;95007.25;5094471;28;20178;-68
2023/12/05 09:23:02;;;;;;;0.80;0.80;;;;;;;6.46;70.66;94995.88;5106542;28;20189;-69
2023/12/05 09:25:28;;;;;;;1.00;1.00;;;;;;;6.74;71.03;95003.88;5096670;28;20189;-68
2023/12/05 09:27:53;;;;;;;0.93;0.93;;;;;;;6.97;71.26;94999.28;5093056;28;20249;-67
2023/12/05 09:30:19;;;;;;;1.00;1.00;;;;;;;7.09;70.19;94992.56;5107699;28;20287;-68
2023/12/05 09:32:45;;;;;;;2.13;2.00;;;;;;;7.01;68.36;94978.78;5094488;28;20219;-69
2023/12/05 09:35:10;;;;;;;4.47;4.27;;;;;;;7.09;68.76;94987.31;5095359;28;20204;-68
2023/12/05 09:37:36;;;;;;;0.70;0.70;;;;;;;7.08;69.27;94971.84;5101182;28;20288;-68
2023/12/05 09:40:02;;;;;;;1.10;1.10;;;;;;;7.20;68.75;94976.38;5089459;28;20204;-68
2023/12/05 09:42:28;;;;;;;0.53;0.53;;;;;;;7.51;68.76;94972.63;5107186;28;20189;-69
2023/12/05 09:44:57;;;;;;;1.07;1.07;;;;;;;7.83;69.88;94977.31;5094982;28;20176;-69
2023/12/05 09:47:25;;;;;;;0.67;0.67;;;;;;;7.89;67.86;94960.81;5102811;28;20260;-68
2023/12/05 09:49:53;;;;;;;0.30;0.30;;;;;;;8.08;66.86;94959.31;5096293;28;20201;-69
2023/12/05 09:52:19;;;;;;;1.43;1.33;;;;;;;8.27;66.98;94957.81;5105614;28;20181;-68
2023/12/05 09:54:47;;;;;;;0.60;0.60;;;;;;;8.37;66.02;94949.63;5093917;28;20646;-68
2023/12/05 09:57:13;;;;;;;0.50;0.50;;;;;;;8.47;65.28;94950.91;5103875;28;20203;-67
2023/12/05 09:59:39;;;;;;;0.80;0.80;;;;;;;8.39;64.99;94931.91;5096634;28;20180;-69
2023/12/05 10:02:06;;;;;;;0.50;0.50;;;;;;;8.65;65.62;94930.16;5104030;28;20540;-69
2023/12/05 10:04:49;;;;;;;0.50;0.50;;;;;;;8.69;64.48;94918.28;5093114;28;20201;-68
2023/12/05 10:07:16;;;;;;;0.50;0.50;;;;;;;8.80;63.05;94927.41;5103561;28;20166;-68
2023/12/05 10:09:43;;;;;;;0.90;0.90;;;;;;;8.44;64.08;94916.38;5100052;28;20221;-68
2023/12/05 10:12:10;;;;;;;0.77;0.77;;;;;;;8.37;64.85;94918.97;5095406;27;20184;-68
2023/12/05 10:14:37;;;;;;;0.80;0.80;;;;;;;8.23;66.32;94914.63;5103650;28;20201;-67
2023/12/05 10:17:03;;;;;;;15.93;13.97;;;;;;;8.08;66.54;94909.53;5090943;28;20554;-68
2023/12/05 10:19:29;;;;;;;9.73;4.50;;;;;;;8.17;66.84;94904.94;5090957;28;20190;-69
2023/12/05 10:21:56;;;;;;;0.47;0.47;;;;;;;8.14;65.53;94879.09;5090088;28;20299;-68
2023/12/05 10:24:22;;;;;;;0.50;0.50;;;;;;;8.46;65.41;94893.38;5090268;28;20308;-67
2023/12/05 10:26:47;;;;;;;3.53;1.67;;;;;;;8.47;64.89;94890.56;5089412;28;20268;-67
2023/12/05 10:29:15;;;;;;;0.50;0.50;;;;;;;8.26;64.83;94873.09;5089717;28;20182;-68
2023/12/05 10:31:41;;;;;;;0.50;0.50;;;;;;;8.28;65.15;94880.78;5089650;28;20173;-69
2023/12/05 10:34:07;;;;;;;0.83;0.83;;;;;;;8.30;65.99;94876.16;5089313;28;20181;-69
2023/12/05 10:36:32;;;;;;;0.80;0.80;;;;;;;8.34;65.84;94864.28;5087465;28;20189;-69
2023/12/05 10:38:58;;;;;;;0.43;0.43;;;;;;;8.61;65.51;94865.16;5089616;28;20253;-68
2023/12/05 10:41:24;;;;;;;0.53;0.53;;;;;;;8.63;64.20;94836.94;5089460;28;20174;-68
2023/12/05 10:43:55;;;;;;;1.13;1.13;;;;;;;8.73;63.61;94854.91;5087791;28;20193;-69
2023/12/05 10:46:21;;;;;;;0.50;0.50;;;;;;;8.69;63.61;94851.88;5089052;28;20164;-69
2023/12/05 10:48:47;;;;;;;0.67;0.67;;;;;;;8.76;64.25;94844.81;5089685;28;20177;-69
2023/12/05 10:51:14;;;;;;;1.53;1.43;;;;;;;8.75;63.61;94834.50;5090275;28;20222;-69
2023/12/05 10:53:39;;;;;;;0.90;0.90;;;;;;;8.40;64.47;94831.19;5087798;28;20197;-69
2023/12/05 10:56:15;;;;;;;0.40;0.40;;;;;;;8.09;66.15;94826.44;5089391;28;20169;-69
2023/12/05 10:58:42;;;;;;;0.40;0.40;;;;;;;8.01;66.51;94816.94;5089067;28;20165;-69
2023/12/05 11:01:12;;;;;;;0.67;0.67;;;;;;;8.15;67.23;94823.84;5088346;28;20174;-69
2023/12/05 11:03:38;;;;;;;0.50;0.50;;;;;;;8.01;66.78;94827.44;5087967;28;20217;-70
2023/12/05 11:06:05;;;;;;;0.87;0.87;;;;;;;7.86;67.53;94834.63;5088736;28;20185;-69
2023/12/05 11:08:32;;;;;;;0.50;0.50;;;;;;;7.75;68.19;94822.88;5089407;28;20174;-70
2023/12/05 11:11:00;;;;;;;0.93;0.93;;;;;;;7.72;68.43;94820.63;5088495;28;20221;-69
2023/12/05 11:13:26;;;;;;;1.83;1.73;;;;;;;7.66;69.05;94808.31;5088262;28;20650;-69
2023/12/05 11:15:56;;;;;;;0.50;0.50;;;;;;;7.53;69.30;94808.22;5088794;28;20174;-69
2023/12/05 11:18:39;;;;;;;1.00;1.00;;;;;;;7.33;70.16;94802.88;5088856;28;20178;-69
2023/12/05 11:21:22;;;;;;;0.60;0.60;;;;;;;7.47;70.64;94804.56;5088707;28;20252;-69
2023/12/05 11:24:02;;;;;;;0.60;0.60;;;;;;;7.45;70.66;94797.91;5088713;28;20635;-69
2023/12/05 11:26:58;;;;;;;0.50;0.50;;;;;;;7.64;70.39;94791.16;5088204;28;20173;-69
2023/12/05 11:30:17;;;;;;;0.50;0.50;;;;;;;7.91;69.99;94787.66;5089303;28;20193;-69
2023/12/05 11:33:04;;;;;;;1.07;1.07;;;;;;;8.00;68.70;94791.72;5087889;28;20166;-69
2023/12/05 11:35:35;;;;;;;0.47;0.47;;;;;;;7.97;70.17;94790.31;5086977;28;20185;-69
2023/12/05 11:38:14;;;;;;;0.50;0.50;;;;;;;8.14;69.73;94800.44;5088344;28;20252;-69
2023/12/05 11:40:40;;;;;;;0.40;0.40;;;;;;;8.25;69.42;94802.50;5087399;28;20200;-69